Flight Information

DEPARTURE
OCEANO, CA
Elevation:
14
Runways:
11/29 - 2325x50 - ASPH-F
CTAF:
122.700
DESTINATION
NEW CUYAMA, CA
Elevation:
2203
TPA:
3203 (est.)
Runways:
10/28 - 3940x60 - ASPH-P
CTAF:
122.900


47 NM102° True-14° Var87° HDG

Flight Plan:
(click to file on line)

1. Type
2. Aircraft Identification
3. Aircraft Type / Special Equipment
4. True Airspeed
kts
5. Departure Airport
(ICAO code)
6. Arriving Airport
(ICAO code)
7. Cruising Altitude
ft
8. Alternate Airport
(ICAO code)
9. Route of Flight
10. Remarks


00:00:00 Departure ATIS: Destination ATIS:

Clearance Limit:
Route:
Altitude: Expect in minutes
Frequency:
Transponder: (7500 Hijack / 7600 Lost Comms / 7700 Emergency)


KL52 121615Z AUTO 5SM BR OVC007 12/11 A3004 RMK A01
Time: 2021-05-12T16:15:00Z
1620837049
Visibility: 5.0 sm
Clouds (AGL): OVC 700
Temperature: 12.0 C
Dew Point: 11.0 C
Pressure: 30.041338 in Hgbr

KIZA 121615Z AUTO 00000KT 10SM OVC002 11/11 A3002 RMK AO2
Time: 2021-05-12T16:15:00Z
1620837051
Winds: calm
Visibility: 10.0 sm
Clouds (AGL): OVC 200
Temperature: 11.0 C
Dew Point: 11.0 C
Pressure: 30.02067 in Hgbr


Notes:

Data extracted from FAA Digital Chart Supplement. Effective: 0901Z Thursday, APR 22, 2021 to 0901Z Thursday, JUN 17, 2021
Current ATIS data is provided courtisy of PilotEdge.